Time;durP1;ratioP1;P1;durP2;ratioP2;P2;SDS_P1;SDS_P2;PMS_P1;PMS_P2;Temp;Humidity;BMP_temperature;BMP_pressure;BME280_temperature;BME280_humidity;BME280_pressure;Samples;Min_cycle;Max_cycle;Signal;HPM_P1;HPM_P2
2023/07/02 00:00:14;;;;;;;27.17;16.55;;;;;;;17.68;78.72;99085.98;1760982;81;25463;-58
2023/07/02 00:02:43;;;;;;;31.80;19.50;;;;;;;17.63;79.05;99084.98;1730834;82;25349;-59
2023/07/02 00:05:10;;;;;;;91.72;84.37;;;;;;;17.61;79.74;99083.23;1761117;81;25634;-59
2023/07/02 00:07:39;;;;;;;31.20;19.83;;;;;;;17.56;79.45;99080.27;1731027;82;25531;-58
2023/07/02 00:10:10;;;;;;;31.15;20.97;;;;;;;17.54;80.06;99079.88;1761037;81;27228;-59
2023/07/02 00:12:37;;;;;;;73.57;67.50;;;;;;;17.50;80.02;99082.61;1703285;82;27225;-59
2023/07/02 00:15:07;;;;;;;90.35;83.05;;;;;;;17.45;80.57;99074.78;1761018;81;25291;-59
2023/07/02 00:17:34;;;;;;;91.78;84.58;;;;;;;17.40;80.56;99075.15;1730732;82;25629;-59
2023/07/02 00:20:08;;;;;;;29.00;18.40;;;;;;;17.36;80.59;99077.07;1761073;81;25400;-58
2023/07/02 00:22:36;;;;;;;26.42;16.45;;;;;;;17.34;80.76;99082.91;1728692;83;29306;-57
2023/07/02 00:25:00;;;;;;;30.37;18.35;;;;;;;17.30;80.82;99085.45;1759491;81;33077;-59
2023/07/02 00:27:27;;;;;;;29.57;19.00;;;;;;;17.25;81.42;99081.13;1730006;83;25534;-59
2023/07/02 00:29:54;;;;;;;33.92;18.95;;;;;;;17.21;81.90;99083.05;1760168;81;25616;-58
2023/07/02 00:32:21;;;;;;;28.00;18.30;;;;;;;17.17;82.72;99084.40;1703017;83;25529;-58
2023/07/02 00:34:48;;;;;;;31.48;19.98;;;;;;;17.13;82.88;99076.78;1760325;81;27189;-59
2023/07/02 00:37:15;;;;;;;30.05;18.73;;;;;;;17.07;83.22;99076.16;1702997;83;25644;-58
2023/07/02 00:39:44;;;;;;;32.90;20.62;;;;;;;17.04;83.36;99076.91;1760358;81;25319;-59
2023/07/02 00:42:14;;;;;;;35.33;20.70;;;;;;;17.02;83.94;99079.25;1730115;82;25682;-61
2023/07/02 00:44:44;;;;;;;29.55;17.02;;;;;;;16.97;83.53;99073.00;1760470;81;25471;-59
2023/07/02 00:47:13;;;;;;;28.95;18.27;;;;;;;16.96;83.07;99073.38;1730155;83;27222;-59
2023/07/02 00:49:42;;;;;;;30.90;19.37;;;;;;;16.93;83.28;99074.91;1760435;81;25537;-58
2023/07/02 00:52:10;;;;;;;28.20;18.25;;;;;;;16.93;84.41;99072.77;1730275;82;25541;-58
2023/07/02 00:54:39;;;;;;;34.50;18.62;;;;;;;16.90;84.15;99072.94;1760466;81;27817;-58
2023/07/02 00:57:09;;;;;;;36.80;20.08;;;;;;;16.88;85.37;99071.17;1727864;82;25372;-59
2023/07/02 00:59:37;;;;;;;37.43;20.93;;;;;;;16.84;85.48;99075.00;1760579;81;27199;-59
2023/07/02 01:02:06;;;;;;;31.90;19.67;;;;;;;16.80;86.10;99066.23;1730187;83;25517;-59
2023/07/02 01:04:34;;;;;;;33.73;20.82;;;;;;;16.78;86.61;99067.17;1760469;81;25328;-58
2023/07/02 01:07:02;;;;;;;32.15;19.87;;;;;;;16.77;86.75;99066.98;1702872;83;25513;-58
2023/07/02 01:09:30;;;;;;;31.60;20.97;;;;;;;16.75;86.98;99065.78;1760498;81;25504;-59
2023/07/02 01:12:06;;;;;;;36.98;21.55;;;;;;;16.74;87.57;99068.33;1730101;83;27219;-59
2023/07/02 01:14:51;;;;;;;31.60;19.73;;;;;;;16.72;87.58;99063.81;1760321;81;25303;-59
2023/07/02 01:17:20;;;;;;;31.85;20.80;;;;;;;16.71;87.66;99065.77;1730165;82;25532;-58
2023/07/02 01:19:51;;;;;;;;;;;;;;;16.68;87.92;99067.88;1763026;81;25559;-58
2023/07/02 01:22:25;;;;;;;35.50;19.25;;;;;;;16.67;88.19;99067.70;1736248;82;25545;-59
2023/07/02 01:24:55;;;;;;;35.48;20.65;;;;;;;16.64;88.08;99069.05;1796449;79;27769;-59
2023/07/02 01:27:22;;;;;;;34.58;20.92;;;;;;;16.62;88.42;99065.33;1796341;79;25336;-59
2023/07/02 01:29:53;;;;;;;33.30;21.10;;;;;;;16.61;88.74;99058.29;1796617;79;25498;-59
2023/07/02 01:32:22;;;;;;;35.73;22.48;;;;;;;16.60;89.03;99063.53;1796367;79;25652;-58
2023/07/02 01:34:53;;;;;;;31.82;20.62;;;;;;;16.57;89.24;99062.95;1796553;79;25577;-59
2023/07/02 01:37:21;;;;;;;34.95;21.42;;;;;;;16.54;89.25;99059.02;1796404;79;27242;-59
2023/07/02 01:39:49;;;;;;;38.40;22.70;;;;;;;16.50;89.49;99053.33;1796580;79;26000;-59
2023/07/02 01:42:20;;;;;;;32.28;20.68;;;;;;;16.47;89.67;99049.42;1796368;79;25294;-60
2023/07/02 01:44:51;;;;;;;32.70;20.90;;;;;;;16.46;89.32;99042.38;1771948;80;25616;-59
2023/07/02 01:47:19;;;;;;;33.05;21.40;;;;;;;16.43;90.03;99048.63;1796481;79;25519;-59
2023/07/02 01:49:48;;;;;;;34.20;22.10;;;;;;;16.43;90.48;99048.63;1796360;79;27244;-58
2023/07/02 01:52:16;;;;;;;36.13;21.57;;;;;;;16.41;91.10;99045.47;1769248;79;25339;-58
2023/07/02 01:54:46;;;;;;;35.63;21.97;;;;;;;16.40;91.29;99041.19;1796568;79;25562;-59
2023/07/02 01:57:15;;;;;;;39.15;21.42;;;;;;;16.38;90.89;99044.30;1770139;79;25798;-59
2023/07/02 01:59:43;;;;;;;40.63;23.32;;;;;;;16.38;92.13;99041.56;1796412;79;25372;-59
2023/07/02 02:02:10;;;;;;;32.33;21.50;;;;;;;16.36;91.71;99045.25;1796345;79;27256;-59
2023/07/02 02:04:37;;;;;;;35.83;22.52;;;;;;;16.35;91.78;99044.27;1796276;79;25554;-59
2023/07/02 02:07:04;;;;;;;38.35;22.58;;;;;;;16.34;91.73;99044.05;1769163;79;25558;-59
2023/07/02 02:09:32;;;;;;;35.30;21.37;;;;;;;16.31;92.04;99040.71;1796281;79;25687;-59
2023/07/02 02:12:00;;;;;;;38.92;22.48;;;;;;;16.30;92.39;99039.94;1796529;79;25476;-59
2023/07/02 02:14:28;;;;;;;36.13;23.15;;;;;;;16.32;92.50;99041.70;1796322;79;27833;-58
2023/07/02 02:16:55;;;;;;;34.27;22.77;;;;;;;16.33;92.98;99039.19;1796319;79;25519;-59
2023/07/02 02:19:22;;;;;;;38.90;22.87;;;;;;;16.36;93.74;99037.07;1796461;79;25305;-59
2023/07/02 02:21:49;;;;;;;37.15;23.18;;;;;;;16.39;93.30;99039.02;1793883;79;25655;-59
2023/07/02 02:24:17;;;;;;;35.45;22.82;;;;;;;16.41;93.81;99039.45;1790477;80;25547;-59
2023/07/02 02:26:44;;;;;;;38.15;23.20;;;;;;;16.42;93.59;99040.22;1790426;80;27333;-59
2023/07/02 02:29:11;;;;;;;35.40;21.48;;;;;;;16.44;93.96;99036.53;1790327;80;25582;-58
2023/07/02 02:31:38;;;;;;;39.25;22.42;;;;;;;16.46;93.98;99040.24;1790448;80;25534;-59
2023/07/02 02:34:05;;;;;;;35.70;22.17;;;;;;;16.46;94.03;99035.56;1790449;80;25559;-59
2023/07/02 02:36:32;;;;;;;40.73;23.60;;;;;;;16.48;94.07;99031.89;1790443;80;25526;-58
2023/07/02 02:38:59;;;;;;;37.95;23.70;;;;;;;16.51;94.16;99037.94;1790625;80;27177;-59
2023/07/02 02:41:26;;;;;;;37.13;23.47;;;;;;;16.52;94.19;99034.65;1791144;80;25698;-59
2023/07/02 02:43:54;;;;;;;37.28;23.02;;;;;;;16.55;94.43;99030.57;1791249;80;25368;-58
2023/07/02 02:46:22;;;;;;;36.23;24.18;;;;;;;16.57;94.84;99035.66;1759462;80;25341;-58
2023/07/02 02:48:51;;;;;;;;;;;;;;;16.60;94.56;99030.78;1795638;79;25538;-58
2023/07/02 02:51:20;;;;;;;38.00;23.47;;;;;;;16.62;94.71;99023.79;1792946;80;29414;-58
2023/07/02 02:53:47;;;;;;;42.23;24.65;;;;;;;16.65;94.80;99026.33;1790493;80;25661;-58
2023/07/02 02:56:16;;;;;;;36.60;22.85;;;;;;;16.66;94.66;99024.40;1790627;80;25377;-59
2023/07/02 02:58:45;;;;;;;42.08;25.50;;;;;;;16.69;94.46;99019.55;1790411;80;25780;-57
2023/07/02 03:01:12;;;;;;;38.75;25.23;;;;;;;16.72;94.78;99021.49;1790576;80;25515;-59
2023/07/02 03:03:45;;;;;;;37.90;25.05;;;;;;;16.73;94.90;99026.58;1790393;80;27229;-62
2023/07/02 03:06:14;;;;;;;36.65;24.45;;;;;;;16.76;95.34;99024.45;1790390;80;25304;-59
2023/07/02 03:08:41;;;;;;;;;;;;;;;16.78;95.09;99024.84;1761536;80;25350;-59
2023/07/02 03:11:09;;;;;;;37.98;23.90;;;;;;;16.82;95.66;99026.23;1790357;80;25617;-59
2023/07/02 03:13:36;;;;;;;36.05;23.85;;;;;;;16.83;95.28;99025.08;1790400;80;25511;-57
2023/07/02 03:16:05;;;;;;;39.40;23.98;;;;;;;16.85;95.21;99021.41;1790365;80;27303;-59
2023/07/02 03:18:33;;;;;;;39.63;24.15;;;;;;;16.89;95.39;99018.69;1759472;80;25499;-57
2023/07/02 03:21:00;;;;;;;38.77;24.10;;;;;;;16.92;95.55;99016.56;1790703;80;25515;-59
2023/07/02 03:23:27;;;;;;;39.18;24.30;;;;;;;16.96;95.17;99018.75;1790342;80;25608;-59
2023/07/02 03:25:55;;;;;;;39.92;24.82;;;;;;;16.99;95.26;99020.13;1790393;80;25295;-57
2023/07/02 03:28:22;;;;;;;37.50;26.30;;;;;;;17.04;95.08;99026.37;1790392;80;27846;-59
2023/07/02 03:30:49;;;;;;;36.88;25.57;;;;;;;17.08;95.22;99025.23;1790351;80;25378;-58
2023/07/02 03:33:16;;;;;;;41.70;26.55;;;;;;;17.12;95.04;99020.56;1792916;79;25475;-57
2023/07/02 03:35:43;;;;;;;43.40;25.65;;;;;;;17.14;94.97;99019.59;1792810;80;25722;-58
2023/07/02 03:38:11;;;;;;;45.05;26.77;;;;;;;17.17;94.93;99016.69;1792954;80;25427;-59
2023/07/02 03:40:39;;;;;;;40.55;25.75;;;;;;;17.20;94.75;99017.85;1792907;80;27263;-59
2023/07/02 03:43:06;;;;;;;36.68;24.63;;;;;;;17.21;94.65;99014.73;1792832;80;25337;-58
2023/07/02 03:45:33;;;;;;;41.88;25.02;;;;;;;17.23;94.58;99013.80;1792916;80;25467;-58
2023/07/02 03:48:00;;;;;;;45.52;26.37;;;;;;;17.26;94.61;99017.69;1792844;80;25667;-58
2023/07/02 03:50:29;;;;;;;34.05;23.75;;;;;;;17.29;94.53;99013.60;1792990;80;25360;-59
2023/07/02 03:52:56;;;;;;;37.03;24.98;;;;;;;17.31;94.33;99022.78;1792866;80;29459;-59
2023/07/02 03:55:23;;;;;;;35.63;23.20;;;;;;;17.33;94.32;99014.98;1792782;80;25530;-58
2023/07/02 03:57:51;;;;;;;36.93;23.40;;;;;;;17.35;94.36;99016.17;1793021;80;25356;-56
2023/07/02 04:00:21;;;;;;;38.88;25.17;;;;;;;17.39;94.37;99014.81;1792869;80;25929;-59
2023/07/02 04:02:48;;;;;;;32.05;22.60;;;;;;;17.41;94.06;99013.84;1792946;80;25309;-59
2023/07/02 04:05:16;;;;;;;33.42;22.90;;;;;;;17.45;94.25;99011.91;1761920;80;28197;-59
2023/07/02 04:07:43;;;;;;;34.38;22.62;;;;;;;17.48;93.94;99016.58;1792791;80;25309;-59
2023/07/02 04:10:10;;;;;;;36.68;22.58;;;;;;;17.48;93.81;99013.84;1792869;80;25511;-58
2023/07/02 04:12:38;;;;;;;36.48;23.30;;;;;;;17.52;93.81;99011.13;1792892;80;25615;-58
2023/07/02 04:15:08;;;;;;;34.33;23.27;;;;;;;17.57;93.88;99014.88;1792952;80;25494;-58
2023/07/02 04:17:35;;;;;;;35.92;22.25;;;;;;;17.63;93.84;99011.16;1792908;80;27886;-59
2023/07/02 04:20:06;;;;;;;35.73;24.18;;;;;;;17.67;93.88;99005.11;1792851;80;27297;-59
2023/07/02 04:22:34;;;;;;;33.78;22.15;;;;;;;17.73;93.60;99007.67;1780325;80;25446;-59
2023/07/02 04:25:01;;;;;;;31.20;21.45;;;;;;;17.78;93.45;99004.55;1760974;81;25599;-60
2023/07/02 04:27:29;;;;;;;35.52;22.22;;;;;;;17.83;92.98;99007.49;1730791;82;25523;-59
2023/07/02 04:29:56;;;;;;;32.33;21.77;;;;;;;17.86;92.85;99003.95;1761008;81;27284;-59
2023/07/02 04:32:24;;;;;;;30.15;20.25;;;;;;;17.88;92.77;99001.08;1730718;82;25322;-59
2023/07/02 04:34:52;;;;;;;36.55;22.48;;;;;;;17.91;92.26;99000.86;1761120;81;25468;-58
2023/07/02 04:37:19;;;;;;;31.27;21.97;;;;;;;17.94;92.14;98997.95;1730676;82;25662;-61
2023/07/02 04:39:46;;;;;;;31.82;21.95;;;;;;;17.99;92.08;98998.93;1761077;81;25533;-60
2023/07/02 04:42:14;;;;;;;32.38;22.00;;;;;;;18.03;91.81;99001.06;1730719;82;27267;-61
2023/07/02 04:44:43;;;;;;;31.07;22.10;;;;;;;18.07;91.87;98999.91;1761029;81;25686;-59
2023/07/02 04:47:12;;;;;;;29.67;21.12;;;;;;;18.13;91.90;98998.92;1730794;82;25553;-60
2023/07/02 04:49:39;;;;;;;29.97;21.00;;;;;;;18.17;91.31;99003.05;1761237;81;25623;-59
2023/07/02 04:52:07;;;;;;;30.05;19.25;;;;;;;18.19;91.23;99004.20;1703402;82;25550;-59
2023/07/02 04:54:34;;;;;;;31.93;21.10;;;;;;;18.24;90.81;99005.17;1758176;81;27493;-59
2023/07/02 04:57:01;;;;;;;27.70;19.82;;;;;;;18.26;90.42;99004.79;1760886;81;25375;-60
2023/07/02 04:59:28;;;;;;;28.12;19.00;;;;;;;18.28;90.11;99003.80;1730751;82;25451;-60
2023/07/02 05:01:55;;;;;;;31.17;20.45;;;;;;;18.31;89.93;99007.73;1760980;81;25615;-59
2023/07/02 05:04:22;;;;;;;27.98;19.45;;;;;;;18.33;89.50;99007.52;1703450;82;25415;-59
2023/07/02 05:06:49;;;;;;;27.98;19.15;;;;;;;18.35;89.29;99003.79;1760978;81;27296;-59
2023/07/02 05:09:16;;;;;;;29.85;20.02;;;;;;;18.38;89.05;99022.77;1703287;82;25536;-59
2023/07/02 05:11:43;;;;;;;26.37;18.50;;;;;;;18.43;89.04;99023.74;1760969;81;25438;-59
2023/07/02 05:14:11;;;;;;;26.62;17.92;;;;;;;18.47;88.78;99023.14;1730693;82;25621;-59
2023/07/02 05:16:39;;;;;;;25.37;18.27;;;;;;;18.49;88.54;99020.81;1760975;81;25306;-56
2023/07/02 05:19:06;;;;;;;28.23;18.80;;;;;;;18.54;88.63;99021.78;1730774;82;29422;-54
2023/07/02 05:21:33;;;;;;;25.02;18.55;;;;;;;18.58;88.27;99021.17;1761032;81;27166;-55
2023/07/02 05:24:00;;;;;;;25.70;18.52;;;;;;;18.60;87.90;99025.66;1730655;82;25324;-55
2023/07/02 05:26:28;;;;;;;26.62;17.65;;;;;;;18.66;87.74;99023.30;1760823;81;25663;-59
2023/07/02 05:28:56;;;;;;;24.27;17.87;;;;;;;18.70;87.39;99020.58;1730689;82;25386;-56
2023/07/02 05:31:22;;;;;;;23.60;17.27;;;;;;;18.75;87.62;99020.17;1760859;81;27372;-56
2023/07/02 05:33:50;;;;;;;26.25;17.95;;;;;;;18.83;87.75;99027.20;1730506;82;25499;-56
2023/07/02 05:36:17;;;;;;;22.85;16.35;;;;;;;18.90;87.51;99018.19;1760856;81;25411;-54
2023/07/02 05:38:44;;;;;;;23.52;15.70;;;;;;;18.97;87.04;99025.03;1730612;82;25672;-54
2023/07/02 05:41:11;;;;;;;23.52;16.52;;;;;;;19.04;86.64;99028.52;1760863;81;25444;-54
2023/07/02 05:43:38;;;;;;;21.60;15.08;;;;;;;19.11;85.81;99028.31;1730588;82;27270;-54
2023/07/02 05:46:05;;;;;;;23.20;16.07;;;;;;;19.11;85.13;99022.23;1760803;81;25369;-57
2023/07/02 05:48:32;;;;;;;22.48;15.78;;;;;;;19.16;85.12;99025.16;1730628;82;25379;-55
2023/07/02 05:50:59;;;;;;;20.92;14.98;;;;;;;19.20;84.75;99030.80;1760846;81;25733;-54
2023/07/02 05:53:26;;;;;;;24.18;16.45;;;;;;;19.22;84.58;99026.29;1730636;82;25482;-56
2023/07/02 05:55:54;;;;;;;18.62;15.10;;;;;;;19.26;84.32;99024.33;1758071;81;27339;-53
2023/07/02 05:58:21;;;;;;;20.85;14.10;;;;;;;19.32;84.02;99027.43;1732425;81;25897;-55
2023/07/02 06:00:49;;;;;;;23.60;16.30;;;;;;;19.36;83.44;99024.87;1702696;82;25376;-56
2023/07/02 06:03:20;;;;;;;18.32;13.55;;;;;;;19.41;83.37;99025.83;1760976;81;26551;-57
2023/07/02 06:05:50;;;;;;;19.25;13.75;;;;;;;19.51;83.21;99022.05;1730778;82;25308;-53
2023/07/02 06:08:19;;;;;;;21.15;14.00;;;;;;;19.57;82.73;99021.23;1760920;81;27201;-53
2023/07/02 06:10:48;;;;;;;22.02;14.43;;;;;;;19.68;82.94;99019.01;1730701;82;25526;-53
2023/07/02 06:13:17;;;;;;;18.92;13.65;;;;;;;19.83;81.25;99021.88;1761004;81;25445;-58
2023/07/02 06:15:45;;;;;;;17.90;13.23;;;;;;;19.83;81.25;99021.88;1730841;82;26519;-53
2023/07/02 06:18:14;;;;;;;18.50;12.75;;;;;;;19.93;79.81;99021.62;1761083;81;25494;-56
2023/07/02 06:20:42;;;;;;;17.10;12.20;;;;;;;19.93;80.10;99016.91;1730750;82;27274;-56
2023/07/02 06:23:09;;;;;;;15.72;12.18;;;;;;;20.01;79.40;99009.41;1760640;81;25869;-56
2023/07/02 06:25:36;;;;;;;19.15;12.25;;;;;;;20.03;78.68;99019.98;1730632;82;25380;-57
2023/07/02 06:28:04;;;;;;;17.12;11.43;;;;;;;20.05;78.92;99021.12;1760758;81;25656;-57
2023/07/02 06:30:32;;;;;;;16.00;11.83;;;;;;;20.10;78.22;99024.81;1730570;82;25307;-56
2023/07/02 06:32:59;;;;;;;16.05;11.28;;;;;;;20.13;77.77;99024.61;1758060;81;26745;-57
2023/07/02 06:35:27;;;;;;;17.50;10.93;;;;;;;20.19;77.12;99036.70;1760755;81;25546;-56
2023/07/02 06:37:54;;;;;;;19.48;11.35;;;;;;;20.23;76.69;99029.84;1730584;82;25569;-56
2023/07/02 06:40:22;;;;;;;12.68;9.70;;;;;;;20.32;76.43;99020.53;1758046;81;25647;-56
2023/07/02 06:42:49;;;;;;;14.40;9.23;;;;;;;20.39;76.62;99025.95;1761137;81;25563;-56
2023/07/02 06:45:17;;;;;;;17.85;10.82;;;;;;;20.46;74.56;99038.23;1730561;82;27201;-56
2023/07/02 06:47:44;;;;;;;14.40;9.63;;;;;;;20.53;75.40;99034.64;1760690;81;25537;-56
2023/07/02 06:50:11;;;;;;;14.58;9.28;;;;;;;20.57;74.22;99034.03;1730532;82;25575;-56
2023/07/02 06:52:38;;;;;;;13.32;8.63;;;;;;;20.66;74.18;99030.84;1760793;81;25974;-55
2023/07/02 06:55:07;;;;;;;15.65;9.28;;;;;;;20.77;72.31;99026.02;1730627;82;25476;-55
2023/07/02 06:57:34;;;;;;;15.72;8.60;;;;;;;20.84;72.33;99023.77;1733484;81;27331;-54
2023/07/02 07:00:03;;;;;;;14.58;9.05;;;;;;;20.97;72.23;99030.90;1730461;82;25475;-55
2023/07/02 07:02:30;;;;;;;13.45;7.87;;;;;;;21.10;70.39;99033.91;1761069;81;25339;-58
2023/07/02 07:04:57;;;;;;;15.15;7.97;;;;;;;21.21;70.71;99033.94;1731251;82;26337;-58
2023/07/02 07:07:25;;;;;;;11.28;7.45;;;;;;;21.31;69.25;99047.98;1761811;81;25064;-59
2023/07/02 07:09:52;;;;;;;9.05;6.60;;;;;;;21.31;68.67;99036.98;1731126;82;27286;-59
2023/07/02 07:12:19;;;;;;;8.08;6.60;;;;;;;21.34;67.39;99040.29;1760683;81;25499;-58
2023/07/02 07:14:46;;;;;;;13.22;8.13;;;;;;;21.35;68.28;99037.70;1730512;82;25451;-58
2023/07/02 07:17:13;;;;;;;11.20;7.28;;;;;;;21.42;67.31;99043.13;1760688;81;27871;-57
2023/07/02 07:19:40;;;;;;;9.70;7.25;;;;;;;21.46;67.06;99045.23;1703282;82;25408;-58
2023/07/02 07:22:07;;;;;;;13.90;6.97;;;;;;;21.51;68.11;99043.42;1760780;81;27227;-57
2023/07/02 07:24:34;;;;;;;10.85;6.53;;;;;;;21.64;67.77;99058.79;1730417;82;25353;-57
2023/07/02 07:27:02;;;;;;;10.23;6.72;;;;;;;21.74;67.25;99057.06;1760786;81;25580;-58
2023/07/02 07:29:29;;;;;;;11.30;6.83;;;;;;;21.88;67.73;99058.83;1730546;82;25671;-58
2023/07/02 07:31:57;;;;;;;9.90;7.00;;;;;;;21.99;67.22;99068.48;1760809;81;25508;-58
2023/07/02 07:34:25;;;;;;;9.13;6.55;;;;;;;22.05;66.80;99062.51;1730666;82;28241;-58
2023/07/02 07:36:52;;;;;;;9.60;6.90;;;;;;;22.09;66.46;99063.25;1760602;81;25488;-58
2023/07/02 07:39:19;;;;;;;10.70;6.37;;;;;;;22.16;66.73;99061.15;1703151;82;25628;-58
2023/07/02 07:41:48;;;;;;;9.98;7.30;;;;;;;22.23;66.10;99058.11;1760690;81;27900;-58
2023/07/02 07:44:15;;;;;;;11.85;6.12;;;;;;;22.21;66.10;99046.13;1730701;82;25361;-58
2023/07/02 07:46:44;;;;;;;10.80;6.35;;;;;;;22.23;65.95;99056.13;1760858;81;26510;-58
2023/07/02 07:49:13;;;;;;;8.10;5.60;;;;;;;22.19;65.61;99066.44;1730695;82;25917;-58
2023/07/02 07:51:40;;;;;;;11.12;6.20;;;;;;;22.16;65.58;99078.28;1760945;81;25317;-58
2023/07/02 07:54:07;;;;;;;8.93;6.33;;;;;;;22.09;65.04;99081.91;1730543;82;26275;-57
2023/07/02 07:56:34;;;;;;;10.55;6.90;;;;;;;21.95;65.17;99085.66;1760778;81;25528;-57
2023/07/02 07:59:02;;;;;;;17.82;5.37;;;;;;;21.85;65.55;99090.73;1730554;82;27126;-60
2023/07/02 08:01:31;;;;;;;10.15;5.70;;;;;;;21.75;65.88;99081.41;1760718;81;25299;-58
2023/07/02 08:03:59;;;;;;;8.78;6.22;;;;;;;21.71;66.38;99086.20;1730502;82;25505;-58
2023/07/02 08:06:27;;;;;;;7.20;4.97;;;;;;;21.69;66.49;99088.59;1732200;81;26265;-57
2023/07/02 08:08:54;;;;;;;7.30;4.67;;;;;;;21.58;66.04;99092.07;1730621;82;25499;-55
2023/07/02 08:11:21;;;;;;;15.18;13.62;;;;;;;21.42;66.21;99092.04;1760787;81;27249;-59
2023/07/02 08:13:48;;;;;;;74.55;70.15;;;;;;;21.30;66.80;99089.83;1730469;82;25500;-58
2023/07/02 08:16:16;;;;;;;73.70;69.40;;;;;;;21.21;67.23;99089.53;1760794;81;25479;-57
2023/07/02 08:18:44;;;;;;;74.42;69.58;;;;;;;21.20;67.70;99092.11;1730486;82;25813;-60
2023/07/02 08:21:11;;;;;;;61.15;57.35;;;;;;;21.22;68.17;99093.25;1760826;81;25346;-58
2023/07/02 08:23:39;;;;;;;6.67;4.20;;;;;;;21.22;68.22;99112.49;1732210;82;27163;-60
2023/07/02 08:26:07;;;;;;;4.47;3.47;;;;;;;21.11;67.87;99091.80;1790381;80;25717;-59
2023/07/02 08:28:34;;;;;;;4.85;3.65;;;;;;;21.00;68.21;99092.70;1790530;80;25522;-58
2023/07/02 08:31:02;;;;;;;5.00;4.22;;;;;;;20.98;69.07;99095.09;1790378;80;25624;-58
2023/07/02 08:33:30;;;;;;;6.05;4.08;;;;;;;21.05;69.14;99096.38;1790473;80;25349;-58
2023/07/02 08:35:57;;;;;;;5.83;4.17;;;;;;;21.14;69.55;99104.73;1790372;80;27759;-54
2023/07/02 08:38:24;;;;;;;4.80;3.80;;;;;;;;;;1759389;80;25568;-57
2023/07/02 08:40:52;;;;;;;6.00;4.22;;;;;;;21.43;70.21;99110.69;1790381;80;25298;-56
2023/07/02 08:43:21;;;;;;;7.55;3.80;;;;;;;21.54;69.87;99110.58;1790353;80;25623;-55
2023/07/02 08:45:49;;;;;;;5.53;3.80;;;;;;;21.57;69.29;99106.43;1790447;80;25525;-56
2023/07/02 08:48:22;;;;;;;8.75;3.65;;;;;;;21.69;69.12;99105.68;1790361;80;27178;-58
2023/07/02 08:50:48;;;;;;;5.67;3.83;;;;;;;21.78;69.32;99101.23;1758174;81;25583;-55
2023/07/02 08:53:16;;;;;;;8.60;4.33;;;;;;;21.97;69.88;99108.05;1790410;80;25122;-59
2023/07/02 08:55:44;;;;;;;5.00;3.50;;;;;;;22.08;68.34;99109.26;1790759;80;25672;-59
2023/07/02 08:58:11;;;;;;;8.05;3.80;;;;;;;21.96;67.56;99106.50;1790578;80;25373;-59
2023/07/02 09:00:38;;;;;;;5.65;4.00;;;;;;;21.85;67.80;99106.47;1790519;80;27200;-59
2023/07/02 09:03:15;;;;;;;6.22;3.72;;;;;;;21.74;67.72;99119.78;1790473;80;25616;-59
2023/07/02 09:05:52;;;;;;;6.97;4.47;;;;;;;21.58;67.87;99111.33;1790538;80;25479;-56
2023/07/02 09:08:28;;;;;;;6.30;4.30;;;;;;;21.42;68.04;99120.14;1790718;80;26180;-53
2023/07/02 09:11:09;;;;;;;7.37;3.95;;;;;;;21.32;68.48;99112.77;1789673;80;25598;-55
2023/07/02 09:13:49;;;;;;;6.20;4.35;;;;;;;21.29;69.01;99117.74;1790618;80;27277;-56
2023/07/02 09:16:30;;;;;;;6.65;4.08;;;;;;;21.20;69.09;99114.88;1792997;79;25321;-55
2023/07/02 09:19:07;;;;;;;10.03;4.87;;;;;;;21.25;69.52;99111.68;1793101;80;25360;-55
2023/07/02 09:21:48;;;;;;;4.60;4.10;;;;;;;21.29;69.52;99125.39;1792897;80;27787;-56
2023/07/02 09:24:19;;;;;;;4.83;4.33;;;;;;;21.31;69.82;99124.37;1793171;80;25283;-54
2023/07/02 09:26:58;;;;;;;5.62;4.40;;;;;;;21.37;69.81;99120.59;1793174;80;26551;-55
2023/07/02 09:29:30;;;;;;;4.10;3.70;;;;;;;21.38;69.55;99126.27;1792993;80;25869;-54
2023/07/02 09:32:00;;;;;;;4.03;3.65;;;;;;;21.33;69.24;99118.47;1793120;80;25358;-58
2023/07/02 09:34:32;;;;;;;3.83;3.50;;;;;;;21.36;69.74;99134.16;1762021;80;26164;-56
2023/07/02 09:37:04;;;;;;;6.10;4.37;;;;;;;21.41;69.78;99130.34;1790722;80;25533;-60
2023/07/02 09:39:36;;;;;;;9.83;4.50;;;;;;;21.47;70.12;99135.42;1760162;80;27203;-56
2023/07/02 09:42:25;;;;;;;6.60;4.80;;;;;;;21.49;69.33;99136.59;1790492;80;25307;-52
2023/07/02 09:44:55;;;;;;;6.50;4.00;;;;;;;21.48;69.11;99141.89;1790255;80;25511;-53
2023/07/02 09:47:26;;;;;;;4.17;3.77;;;;;;;21.48;69.21;99137.00;1790466;80;25687;-54
2023/07/02 09:50:06;;;;;;;4.15;3.75;;;;;;;21.53;69.48;99136.55;1790588;80;25301;-59
2023/07/02 09:52:36;;;;;;;5.10;4.40;;;;;;;21.59;69.47;99141.19;1790563;80;27271;-53
2023/07/02 09:55:07;;;;;;;4.35;3.95;;;;;;;21.57;68.60;99138.64;1790420;80;25554;-60
2023/07/02 09:57:35;;;;;;;6.83;5.80;;;;;;;21.55;68.88;99141.03;1790527;80;25304;-62
2023/07/02 10:00:13;;;;;;;5.47;4.97;;;;;;;21.54;68.64;99140.27;1790739;80;26207;-63
2023/07/02 10:02:41;;;;;;;5.70;4.45;;;;;;;21.53;68.97;99137.31;1668029;85;25373;-60
2023/07/02 10:05:11;;;;;;;6.22;3.83;;;;;;;21.55;68.86;99133.55;1689443;84;27189;-60
2023/07/02 10:07:38;;;;;;;;;;;;;;;21.67;69.76;99130.08;1691794;84;25370;-59
2023/07/02 10:10:09;;;;;;;6.03;5.10;;;;;;;21.92;69.12;99125.02;1689591;84;25414;-62
2023/07/02 10:12:42;;;;;;;5.03;3.85;;;;;;;22.26;69.25;99124.15;1689443;84;25625;-63
2023/07/02 10:15:10;;;;;;;5.05;3.72;;;;;;;22.71;68.13;99122.48;1693211;84;25528;-63
2023/07/02 10:17:37;;;;;;;5.42;3.77;;;;;;;23.08;67.46;99121.27;1689390;84;29581;-63
2023/07/02 10:20:10;;;;;;;4.30;3.10;;;;;;;23.35;65.36;99115.63;1689319;84;26062;-63
2023/07/02 10:22:54;;;;;;;6.40;3.47;;;;;;;23.43;64.81;99112.91;1689455;84;25641;-52
2023/07/02 10:25:38;;;;;;;3.17;2.90;;;;;;;23.53;64.02;99112.52;1689376;84;25903;-51
2023/07/02 10:28:19;;;;;;;3.60;3.15;;;;;;;23.58;64.26;99098.80;1693825;84;25425;-53
2023/07/02 10:30:47;;;;;;;5.12;3.45;;;;;;;23.81;64.18;99097.34;1666084;84;27459;-54
2023/07/02 10:33:17;;;;;;;5.58;3.15;;;;;;;24.11;63.59;99105.75;1689312;84;25367;-53
2023/07/02 10:35:49;;;;;;;2.83;2.45;;;;;;;24.29;63.08;99106.73;1689430;84;25376;-51
2023/07/02 10:38:23;;;;;;;2.70;2.50;;;;;;;24.51;62.24;99112.52;1689397;84;25680;-52
2023/07/02 10:41:00;;;;;;;2.70;2.50;;;;;;;24.64;61.25;99106.49;1776069;80;25530;-52
2023/07/02 10:43:31;;;;;;;2.60;2.40;;;;;;;24.85;60.63;99103.00;1793014;80;26925;-57
2023/07/02 10:46:00;;;;;;;2.30;2.10;;;;;;;25.15;58.54;99097.04;1792922;80;25482;-52
2023/07/02 10:48:29;;;;;;;3.33;2.42;;;;;;;25.20;54.42;99097.70;1762338;80;25507;-52
2023/07/02 10:50:57;;;;;;;5.05;2.60;;;;;;;25.22;56.63;99094.69;1792939;80;25623;-58
2023/07/02 10:53:24;;;;;;;2.30;2.10;;;;;;;25.25;56.97;99095.78;1793012;80;25521;-53
2023/07/02 10:55:56;;;;;;;4.35;2.42;;;;;;;25.21;56.09;99099.27;1792999;80;27267;-57
2023/07/02 10:58:24;;;;;;;2.30;2.10;;;;;;;25.39;57.87;99094.05;1792907;80;25429;-61
2023/07/02 11:00:53;;;;;;;2.45;2.25;;;;;;;25.62;57.04;99098.50;1792933;80;25360;-54
2023/07/02 11:03:22;;;;;;;;;;;;;;;25.51;55.78;99093.91;1795618;80;25590;-58
2023/07/02 11:05:51;;;;;;;2.85;2.55;;;;;;;25.42;55.88;99090.41;1793099;80;25476;-59
2023/07/02 11:08:25;;;;;;;3.52;2.40;;;;;;;25.27;55.52;99090.03;1790614;80;27822;-56
2023/07/02 11:10:49;;;;;;;2.77;2.55;;;;;;;25.07;55.70;99088.77;1789052;80;25532;-56
2023/07/02 11:13:20;;;;;;;2.30;2.10;;;;;;;24.76;55.57;99090.57;1790555;80;25559;-56
2023/07/02 11:15:47;;;;;;;6.25;2.50;;;;;;;24.49;55.53;99096.98;1790427;80;26195;-58
2023/07/02 11:18:20;;;;;;;17.67;12.25;;;;;;;24.16;56.17;99093.61;1790513;80;25530;-62
2023/07/02 11:20:49;;;;;;;5.37;4.58;;;;;;;23.95;57.03;99103.76;1790361;80;27205;-61
2023/07/02 11:23:22;;;;;;;4.70;3.37;;;;;;;23.77;57.55;99090.31;1790487;80;25619;-54
2023/07/02 11:26:03;;;;;;;6.28;3.08;;;;;;;23.62;58.05;99101.67;1767197;79;25452;-51
2023/07/02 11:28:34;;;;;;;4.50;2.42;;;;;;;23.48;58.89;99103.36;1763066;81;25658;-52
2023/07/02 11:31:03;;;;;;;5.15;2.60;;;;;;;23.25;58.57;99104.97;1731176;82;25379;-52